sensor_id;sensor_type;location;lat;lon;timestamp;temperature;humidity
27540;DHT22;15906;52.046;4.724;2023-04-25T00:01:47;6.40;99.90
27540;DHT22;15906;52.046;4.724;2023-04-25T00:04:12;6.30;99.90
27540;DHT22;15906;52.046;4.724;2023-04-25T00:06:38;6.30;99.90
27540;DHT22;15906;52.046;4.724;2023-04-25T00:09:05;6.40;99.90
27540;DHT22;15906;52.046;4.724;2023-04-25T00:11:34;6.30;99.90
27540;DHT22;15906;52.046;4.724;2023-04-25T00:13:59;6.30;99.90
27540;DHT22;15906;52.046;4.724;2023-04-25T00:16:27;6.20;99.90
27540;DHT22;15906;52.046;4.724;2023-04-25T00:18:54;6.20;99.90
27540;DHT22;15906;52.046;4.724;2023-04-25T00:21:20;6.20;99.90
27540;DHT22;15906;52.046;4.724;2023-04-25T00:23:46;6.20;99.90
27540;DHT22;15906;52.046;4.724;2023-04-25T00:26:12;6.10;99.90
27540;DHT22;15906;52.046;4.724;2023-04-25T00:28:39;6.10;99.90
27540;DHT22;15906;52.046;4.724;2023-04-25T00:31:05;6.20;99.90
27540;DHT22;15906;52.046;4.724;2023-04-25T00:33:30;6.10;99.90
27540;DHT22;15906;52.046;4.724;2023-04-25T00:35:56;6.00;99.90
27540;DHT22;15906;52.046;4.724;2023-04-25T00:38:22;6.10;99.90
27540;DHT22;15906;52.046;4.724;2023-04-25T00:40:47;6.10;99.90
27540;DHT22;15906;52.046;4.724;2023-04-25T00:43:13;6.10;99.90
27540;DHT22;15906;52.046;4.724;2023-04-25T00:45:39;6.10;99.90
27540;DHT22;15906;52.046;4.724;2023-04-25T00:48:06;6.00;99.90
27540;DHT22;15906;52.046;4.724;2023-04-25T00:50:33;6.00;99.90
27540;DHT22;15906;52.046;4.724;2023-04-25T00:52:59;5.90;99.90
27540;DHT22;15906;52.046;4.724;2023-04-25T00:55:25;5.90;99.90
27540;DHT22;15906;52.046;4.724;2023-04-25T00:57:51;5.90;99.90
27540;DHT22;15906;52.046;4.724;2023-04-25T01:00:18;5.90;99.90
27540;DHT22;15906;52.046;4.724;2023-04-25T01:02:44;6.00;99.90
27540;DHT22;15906;52.046;4.724;2023-04-25T01:05:11;6.00;99.90
27540;DHT22;15906;52.046;4.724;2023-04-25T01:07:37;6.00;99.90
27540;DHT22;15906;52.046;4.724;2023-04-25T01:10:04;6.10;99.90
27540;DHT22;15906;52.046;4.724;2023-04-25T01:12:30;6.00;99.90
27540;DHT22;15906;52.046;4.724;2023-04-25T01:14:56;6.00;99.90
27540;DHT22;15906;52.046;4.724;2023-04-25T01:20:03;5.90;99.90
27540;DHT22;15906;52.046;4.724;2023-04-25T01:22:29;5.90;99.90
27540;DHT22;15906;52.046;4.724;2023-04-25T01:24:55;6.00;99.90
27540;DHT22;15906;52.046;4.724;2023-04-25T01:27:21;5.90;99.90
27540;DHT22;15906;52.046;4.724;2023-04-25T01:29:48;5.90;99.90
27540;DHT22;15906;52.046;4.724;2023-04-25T01:32:14;5.90;99.90
27540;DHT22;15906;52.046;4.724;2023-04-25T01:34:40;5.80;99.90
27540;DHT22;15906;52.046;4.724;2023-04-25T01:37:05;5.80;99.90
27540;DHT22;15906;52.046;4.724;2023-04-25T01:39:31;5.80;99.90
27540;DHT22;15906;52.046;4.724;2023-04-25T01:41:58;5.80;99.90
27540;DHT22;15906;52.046;4.724;2023-04-25T01:44:25;5.80;99.90
27540;DHT22;15906;52.046;4.724;2023-04-25T01:46:51;5.70;99.90
27540;DHT22;15906;52.046;4.724;2023-04-25T01:49:16;5.70;99.90
27540;DHT22;15906;52.046;4.724;2023-04-25T01:51:42;5.70;99.90
27540;DHT22;15906;52.046;4.724;2023-04-25T01:54:09;5.70;99.90
27540;DHT22;15906;52.046;4.724;2023-04-25T01:56:37;5.70;99.90
27540;DHT22;15906;52.046;4.724;2023-04-25T01:59:04;5.70;99.90
27540;DHT22;15906;52.046;4.724;2023-04-25T02:01:30;5.60;99.90
27540;DHT22;15906;52.046;4.724;2023-04-25T02:03:55;5.60;99.90
27540;DHT22;15906;52.046;4.724;2023-04-25T02:06:21;5.60;99.90
27540;DHT22;15906;52.046;4.724;2023-04-25T02:08:47;5.60;99.90
27540;DHT22;15906;52.046;4.724;2023-04-25T02:11:12;5.60;99.90
27540;DHT22;15906;52.046;4.724;2023-04-25T02:13:38;5.50;99.90
27540;DHT22;15906;52.046;4.724;2023-04-25T02:16:04;5.50;99.90
27540;DHT22;15906;52.046;4.724;2023-04-25T02:18:29;5.50;99.90
27540;DHT22;15906;52.046;4.724;2023-04-25T02:20:57;5.50;99.90
27540;DHT22;15906;52.046;4.724;2023-04-25T02:23:22;5.50;99.90
27540;DHT22;15906;52.046;4.724;2023-04-25T02:25:48;5.50;99.90
27540;DHT22;15906;52.046;4.724;2023-04-25T02:28:14;5.50;99.90
27540;DHT22;15906;52.046;4.724;2023-04-25T02:30:39;5.60;99.90
27540;DHT22;15906;52.046;4.724;2023-04-25T02:33:05;5.60;99.90
27540;DHT22;15906;52.046;4.724;2023-04-25T02:35:31;5.60;99.90
27540;DHT22;15906;52.046;4.724;2023-04-25T02:37:56;5.60;99.90
27540;DHT22;15906;52.046;4.724;2023-04-25T02:40:22;5.60;99.90
27540;DHT22;15906;52.046;4.724;2023-04-25T02:42:48;5.70;99.90
27540;DHT22;15906;52.046;4.724;2023-04-25T02:45:13;5.70;99.90
27540;DHT22;15906;52.046;4.724;2023-04-25T02:47:39;5.70;99.90
27540;DHT22;15906;52.046;4.724;2023-04-25T02:50:05;5.70;99.90
27540;DHT22;15906;52.046;4.724;2023-04-25T02:52:31;5.90;99.90
27540;DHT22;15906;52.046;4.724;2023-04-25T02:54:56;5.80;99.90
27540;DHT22;15906;52.046;4.724;2023-04-25T02:57:22;5.80;99.90
27540;DHT22;15906;52.046;4.724;2023-04-25T02:59:47;5.80;99.90
27540;DHT22;15906;52.046;4.724;2023-04-25T03:02:13;5.80;99.90
27540;DHT22;15906;52.046;4.724;2023-04-25T03:04:39;5.80;99.90
27540;DHT22;15906;52.046;4.724;2023-04-25T03:07:05;5.80;99.90
27540;DHT22;15906;52.046;4.724;2023-04-25T03:09:30;5.90;99.90
27540;DHT22;15906;52.046;4.724;2023-04-25T03:11:56;5.80;99.90
27540;DHT22;15906;52.046;4.724;2023-04-25T03:14:22;5.90;99.90
27540;DHT22;15906;52.046;4.724;2023-04-25T03:16:47;5.90;99.90
27540;DHT22;15906;52.046;4.724;2023-04-25T03:19:13;5.90;99.90
27540;DHT22;15906;52.046;4.724;2023-04-25T03:21:41;5.90;99.90
27540;DHT22;15906;52.046;4.724;2023-04-25T03:24:06;6.00;99.90
27540;DHT22;15906;52.046;4.724;2023-04-25T03:26:32;6.00;99.90
27540;DHT22;15906;52.046;4.724;2023-04-25T03:28:58;6.00;99.90
27540;DHT22;15906;52.046;4.724;2023-04-25T03:31:23;6.00;99.90
27540;DHT22;15906;52.046;4.724;2023-04-25T03:33:49;6.10;99.90
27540;DHT22;15906;52.046;4.724;2023-04-25T03:36:14;6.10;99.90
27540;DHT22;15906;52.046;4.724;2023-04-25T03:38:40;6.20;99.90
27540;DHT22;15906;52.046;4.724;2023-04-25T03:41:07;6.10;99.90
27540;DHT22;15906;52.046;4.724;2023-04-25T03:43:32;6.20;99.90
27540;DHT22;15906;52.046;4.724;2023-04-25T03:45:58;6.20;99.90
27540;DHT22;15906;52.046;4.724;2023-04-25T03:48:24;6.30;99.90
27540;DHT22;15906;52.046;4.724;2023-04-25T03:50:51;6.20;99.90
27540;DHT22;15906;52.046;4.724;2023-04-25T03:53:17;6.10;99.90
27540;DHT22;15906;52.046;4.724;2023-04-25T03:55:42;6.20;99.90
27540;DHT22;15906;52.046;4.724;2023-04-25T03:58:08;6.10;99.90
27540;DHT22;15906;52.046;4.724;2023-04-25T04:00:34;6.10;99.90
27540;DHT22;15906;52.046;4.724;2023-04-25T04:03:00;6.00;99.90
27540;DHT22;15906;52.046;4.724;2023-04-25T04:05:26;6.10;99.90
27540;DHT22;15906;52.046;4.724;2023-04-25T04:07:51;6.10;99.90
27540;DHT22;15906;52.046;4.724;2023-04-25T04:10:17;6.10;99.90
27540;DHT22;15906;52.046;4.724;2023-04-25T04:12:42;6.10;99.90
27540;DHT22;15906;52.046;4.724;2023-04-25T04:15:08;5.90;99.90
27540;DHT22;15906;52.046;4.724;2023-04-25T04:17:35;6.00;99.90
27540;DHT22;15906;52.046;4.724;2023-04-25T04:20:00;6.00;99.90
27540;DHT22;15906;52.046;4.724;2023-04-25T04:22:26;6.00;99.90
27540;DHT22;15906;52.046;4.724;2023-04-25T04:24:52;6.00;99.90
27540;DHT22;15906;52.046;4.724;2023-04-25T04:27:18;6.00;99.90
27540;DHT22;15906;52.046;4.724;2023-04-25T04:29:45;6.00;99.90
27540;DHT22;15906;52.046;4.724;2023-04-25T04:32:11;6.00;99.90
27540;DHT22;15906;52.046;4.724;2023-04-25T04:34:37;6.10;99.90
27540;DHT22;15906;52.046;4.724;2023-04-25T04:37:02;6.20;99.90
27540;DHT22;15906;52.046;4.724;2023-04-25T04:39:28;6.20;99.90
27540;DHT22;15906;52.046;4.724;2023-04-25T04:41:54;6.20;99.90
27540;DHT22;15906;52.046;4.724;2023-04-25T04:44:19;6.20;99.90
27540;DHT22;15906;52.046;4.724;2023-04-25T04:46:45;6.00;99.90
27540;DHT22;15906;52.046;4.724;2023-04-25T04:49:12;6.00;99.90
27540;DHT22;15906;52.046;4.724;2023-04-25T04:51:39;6.00;99.90
27540;DHT22;15906;52.046;4.724;2023-04-25T04:54:05;6.00;99.90
27540;DHT22;15906;52.046;4.724;2023-04-25T04:56:31;6.00;99.90
27540;DHT22;15906;52.046;4.724;2023-04-25T04:58:58;6.00;99.90
27540;DHT22;15906;52.046;4.724;2023-04-25T05:01:24;6.00;99.90
27540;DHT22;15906;52.046;4.724;2023-04-25T05:03:49;6.00;99.90
27540;DHT22;15906;52.046;4.724;2023-04-25T05:06:16;6.00;99.90
27540;DHT22;15906;52.046;4.724;2023-04-25T05:08:42;6.00;99.90
27540;DHT22;15906;52.046;4.724;2023-04-25T05:11:08;6.00;99.90
27540;DHT22;15906;52.046;4.724;2023-04-25T05:13:33;6.00;99.90
27540;DHT22;15906;52.046;4.724;2023-04-25T05:15:59;6.00;99.90
27540;DHT22;15906;52.046;4.724;2023-04-25T05:18:24;6.00;99.90
27540;DHT22;15906;52.046;4.724;2023-04-25T05:20:50;6.00;99.90
27540;DHT22;15906;52.046;4.724;2023-04-25T05:23:15;6.00;99.90
27540;DHT22;15906;52.046;4.724;2023-04-25T05:25:41;6.00;99.90
27540;DHT22;15906;52.046;4.724;2023-04-25T05:28:07;6.10;99.90
27540;DHT22;15906;52.046;4.724;2023-04-25T05:30:34;6.10;99.90
27540;DHT22;15906;52.046;4.724;2023-04-25T05:32:59;6.10;99.90
27540;DHT22;15906;52.046;4.724;2023-04-25T05:35:25;6.20;99.90
27540;DHT22;15906;52.046;4.724;2023-04-25T05:37:51;6.20;99.90
27540;DHT22;15906;52.046;4.724;2023-04-25T05:40:16;6.10;99.90
27540;DHT22;15906;52.046;4.724;2023-04-25T05:42:42;6.20;99.90
27540;DHT22;15906;52.046;4.724;2023-04-25T05:45:08;6.30;99.90
27540;DHT22;15906;52.046;4.724;2023-04-25T05:47:34;6.30;99.90
27540;DHT22;15906;52.046;4.724;2023-04-25T05:49:59;6.20;99.90
27540;DHT22;15906;52.046;4.724;2023-04-25T05:52:25;6.20;99.90
27540;DHT22;15906;52.046;4.724;2023-04-25T05:54:50;6.10;99.90
27540;DHT22;15906;52.046;4.724;2023-04-25T05:57:23;6.10;99.90
27540;DHT22;15906;52.046;4.724;2023-04-25T05:59:49;6.20;99.90
27540;DHT22;15906;52.046;4.724;2023-04-25T06:02:15;6.10;99.90
27540;DHT22;15906;52.046;4.724;2023-04-25T06:04:40;6.20;99.90
27540;DHT22;15906;52.046;4.724;2023-04-25T06:07:06;6.20;99.90
27540;DHT22;15906;52.046;4.724;2023-04-25T06:09:31;6.10;99.90
27540;DHT22;15906;52.046;4.724;2023-04-25T06:11:57;6.10;99.90
27540;DHT22;15906;52.046;4.724;2023-04-25T06:14:22;6.10;99.90
27540;DHT22;15906;52.046;4.724;2023-04-25T06:16:48;6.20;99.90
27540;DHT22;15906;52.046;4.724;2023-04-25T06:19:13;6.30;99.90
27540;DHT22;15906;52.046;4.724;2023-04-25T06:21:39;6.20;99.90
27540;DHT22;15906;52.046;4.724;2023-04-25T06:24:05;6.20;99.90
27540;DHT22;15906;52.046;4.724;2023-04-25T06:26:30;6.10;99.90
27540;DHT22;15906;52.046;4.724;2023-04-25T06:28:56;6.00;99.90
27540;DHT22;15906;52.046;4.724;2023-04-25T06:31:22;6.20;99.90
27540;DHT22;15906;52.046;4.724;2023-04-25T06:33:47;6.10;99.90
27540;DHT22;15906;52.046;4.724;2023-04-25T06:36:13;6.20;99.90
27540;DHT22;15906;52.046;4.724;2023-04-25T06:38:39;6.30;99.90
27540;DHT22;15906;52.046;4.724;2023-04-25T06:41:04;6.30;99.90
27540;DHT22;15906;52.046;4.724;2023-04-25T06:43:30;6.40;99.90
27540;DHT22;15906;52.046;4.724;2023-04-25T06:45:59;6.50;99.90
27540;DHT22;15906;52.046;4.724;2023-04-25T06:48:26;6.50;99.90
27540;DHT22;15906;52.046;4.724;2023-04-25T06:50:52;6.60;99.90
27540;DHT22;15906;52.046;4.724;2023-04-25T06:53:17;6.70;99.90
27540;DHT22;15906;52.046;4.724;2023-04-25T06:55:43;6.70;99.90
27540;DHT22;15906;52.046;4.724;2023-04-25T06:58:09;6.80;99.90
27540;DHT22;15906;52.046;4.724;2023-04-25T07:00:34;6.80;99.90
27540;DHT22;15906;52.046;4.724;2023-04-25T07:03:01;6.90;99.90
27540;DHT22;15906;52.046;4.724;2023-04-25T07:05:27;6.90;99.90
27540;DHT22;15906;52.046;4.724;2023-04-25T07:07:52;7.10;99.90
27540;DHT22;15906;52.046;4.724;2023-04-25T07:10:18;7.20;99.90
27540;DHT22;15906;52.046;4.724;2023-04-25T07:12:44;7.30;99.90
27540;DHT22;15906;52.046;4.724;2023-04-25T07:15:10;7.50;99.90
27540;DHT22;15906;52.046;4.724;2023-04-25T07:17:37;7.70;99.90
27540;DHT22;15906;52.046;4.724;2023-04-25T07:20:02;7.70;99.90
27540;DHT22;15906;52.046;4.724;2023-04-25T07:22:29;7.90;99.90
27540;DHT22;15906;52.046;4.724;2023-04-25T07:24:55;8.00;99.90
27540;DHT22;15906;52.046;4.724;2023-04-25T07:27:20;8.30;99.90
27540;DHT22;15906;52.046;4.724;2023-04-25T07:29:46;8.60;99.90
27540;DHT22;15906;52.046;4.724;2023-04-25T07:32:12;8.60;99.90
27540;DHT22;15906;52.046;4.724;2023-04-25T07:34:38;8.70;99.90
27540;DHT22;15906;52.046;4.724;2023-04-25T07:37:04;8.70;99.90
27540;DHT22;15906;52.046;4.724;2023-04-25T07:39:31;8.60;99.90
27540;DHT22;15906;52.046;4.724;2023-04-25T07:41:56;8.60;99.90
27540;DHT22;15906;52.046;4.724;2023-04-25T07:44:24;8.90;99.90
27540;DHT22;15906;52.046;4.724;2023-04-25T07:46:49;9.20;99.90
27540;DHT22;15906;52.046;4.724;2023-04-25T07:49:15;9.80;99.90
27540;DHT22;15906;52.046;4.724;2023-04-25T07:51:41;10.20;99.90
27540;DHT22;15906;52.046;4.724;2023-04-25T07:54:09;10.50;99.90
27540;DHT22;15906;52.046;4.724;2023-04-25T07:56:34;10.60;99.90
27540;DHT22;15906;52.046;4.724;2023-04-25T07:59:00;10.60;99.90
27540;DHT22;15906;52.046;4.724;2023-04-25T08:01:26;10.80;99.90
27540;DHT22;15906;52.046;4.724;2023-04-25T08:03:52;10.90;99.90
27540;DHT22;15906;52.046;4.724;2023-04-25T08:06:18;10.80;99.90
27540;DHT22;15906;52.046;4.724;2023-04-25T08:08:43;10.70;99.90
27540;DHT22;15906;52.046;4.724;2023-04-25T08:11:09;10.60;99.90
27540;DHT22;15906;52.046;4.724;2023-04-25T08:13:35;10.60;99.90
27540;DHT22;15906;52.046;4.724;2023-04-25T08:16:01;10.40;99.90
27540;DHT22;15906;52.046;4.724;2023-04-25T08:18:27;10.10;99.90
27540;DHT22;15906;52.046;4.724;2023-04-25T08:20:52;10.00;99.90
27540;DHT22;15906;52.046;4.724;2023-04-25T08:23:18;10.00;99.90
27540;DHT22;15906;52.046;4.724;2023-04-25T08:25:43;10.40;99.90
27540;DHT22;15906;52.046;4.724;2023-04-25T08:28:09;10.80;99.90
27540;DHT22;15906;52.046;4.724;2023-04-25T08:30:34;11.20;99.90
27540;DHT22;15906;52.046;4.724;2023-04-25T08:33:00;11.40;99.90
27540;DHT22;15906;52.046;4.724;2023-04-25T08:35:26;11.30;99.90
27540;DHT22;15906;52.046;4.724;2023-04-25T08:37:51;11.20;99.90
27540;DHT22;15906;52.046;4.724;2023-04-25T08:40:17;11.00;99.90
27540;DHT22;15906;52.046;4.724;2023-04-25T08:42:45;10.70;99.90
27540;DHT22;15906;52.046;4.724;2023-04-25T08:45:12;10.40;99.90
27540;DHT22;15906;52.046;4.724;2023-04-25T08:47:38;10.10;99.90
27540;DHT22;15906;52.046;4.724;2023-04-25T08:50:05;9.80;99.90
27540;DHT22;15906;52.046;4.724;2023-04-25T08:52:36;9.70;99.90
27540;DHT22;15906;52.046;4.724;2023-04-25T08:55:03;9.50;99.90
27540;DHT22;15906;52.046;4.724;2023-04-25T08:57:31;9.40;99.90
27540;DHT22;15906;52.046;4.724;2023-04-25T08:59:57;9.80;99.90
27540;DHT22;15906;52.046;4.724;2023-04-25T09:02:24;10.30;99.90
27540;DHT22;15906;52.046;4.724;2023-04-25T09:04:50;10.90;99.90
27540;DHT22;15906;52.046;4.724;2023-04-25T09:07:16;11.10;99.90
27540;DHT22;15906;52.046;4.724;2023-04-25T09:09:44;11.20;99.90
27540;DHT22;15906;52.046;4.724;2023-04-25T09:12:10;10.90;99.90
27540;DHT22;15906;52.046;4.724;2023-04-25T09:14:35;10.60;99.90
27540;DHT22;15906;52.046;4.724;2023-04-25T09:17:03;10.40;99.90
27540;DHT22;15906;52.046;4.724;2023-04-25T09:19:34;10.70;99.90
27540;DHT22;15906;52.046;4.724;2023-04-25T09:22:02;10.90;99.90
27540;DHT22;15906;52.046;4.724;2023-04-25T09:24:45;11.10;99.90
27540;DHT22;15906;52.046;4.724;2023-04-25T09:27:51;11.00;99.90
27540;DHT22;15906;52.046;4.724;2023-04-25T09:37:04;10.60;99.90
27540;DHT22;15906;52.046;4.724;2023-04-25T09:46:09;10.30;99.90
27540;DHT22;15906;52.046;4.724;2023-04-25T09:52:17;11.20;99.90
27540;DHT22;15906;52.046;4.724;2023-04-25T09:58:04;12.00;99.90
27540;DHT22;15906;52.046;4.724;2023-04-25T10:00:51;11.90;99.90
27540;DHT22;15906;52.046;4.724;2023-04-25T10:03:55;11.60;99.90
27540;DHT22;15906;52.046;4.724;2023-04-25T10:12:47;10.90;99.90
27540;DHT22;15906;52.046;4.724;2023-04-25T10:18:54;11.20;99.90
27540;DHT22;15906;52.046;4.724;2023-04-25T10:25:01;12.30;99.90
27540;DHT22;15906;52.046;4.724;2023-04-25T10:27:46;12.70;99.90
27540;DHT22;15906;52.046;4.724;2023-04-25T10:36:40;13.30;99.90
27540;DHT22;15906;52.046;4.724;2023-04-25T10:42:46;13.90;99.90
27540;DHT22;15906;52.046;4.724;2023-04-25T10:45:51;13.50;99.90
27540;DHT22;15906;52.046;4.724;2023-04-25T10:48:35;12.90;99.90
27540;DHT22;15906;52.046;4.724;2023-04-25T11:02:53;11.50;99.90
27540;DHT22;15906;52.046;4.724;2023-04-25T11:09:01;12.40;99.90
27540;DHT22;15906;52.046;4.724;2023-04-25T11:11:53;13.00;99.90
27540;DHT22;15906;52.046;4.724;2023-04-25T11:14:37;12.80;99.90
27540;DHT22;15906;52.046;4.724;2023-04-25T11:20:25;12.60;99.90
27540;DHT22;15906;52.046;4.724;2023-04-25T11:22:51;13.20;99.90
27540;DHT22;15906;52.046;4.724;2023-04-25T11:25:17;13.70;99.90
27540;DHT22;15906;52.046;4.724;2023-04-25T11:27:52;13.30;99.90
27540;DHT22;15906;52.046;4.724;2023-04-25T11:30:18;13.20;99.90
27540;DHT22;15906;52.046;4.724;2023-04-25T11:32:44;13.40;99.90
27540;DHT22;15906;52.046;4.724;2023-04-25T11:35:10;13.20;99.90
27540;DHT22;15906;52.046;4.724;2023-04-25T11:37:38;13.10;99.90
27540;DHT22;15906;52.046;4.724;2023-04-25T11:40:05;13.00;99.40
27540;DHT22;15906;52.046;4.724;2023-04-25T11:42:32;13.60;99.90
27540;DHT22;15906;52.046;4.724;2023-04-25T11:44:58;13.90;99.90
27540;DHT22;15906;52.046;4.724;2023-04-25T11:47:31;14.40;99.90
27540;DHT22;15906;52.046;4.724;2023-04-25T11:49:58;14.90;99.90
27540;DHT22;15906;52.046;4.724;2023-04-25T11:52:34;15.00;98.30
27540;DHT22;15906;52.046;4.724;2023-04-25T11:55:00;14.60;99.90
27540;DHT22;15906;52.046;4.724;2023-04-25T11:57:26;13.80;99.30
27540;DHT22;15906;52.046;4.724;2023-04-25T11:59:51;13.00;99.90
27540;DHT22;15906;52.046;4.724;2023-04-25T12:02:26;13.00;99.90
27540;DHT22;15906;52.046;4.724;2023-04-25T12:04:52;13.30;99.90
27540;DHT22;15906;52.046;4.724;2023-04-25T12:07:17;13.70;99.90
27540;DHT22;15906;52.046;4.724;2023-04-25T12:09:51;14.10;99.90
27540;DHT22;15906;52.046;4.724;2023-04-25T12:12:18;14.50;99.90
27540;DHT22;15906;52.046;4.724;2023-04-25T12:14:47;14.50;99.90
27540;DHT22;15906;52.046;4.724;2023-04-25T12:17:16;14.50;99.10
27540;DHT22;15906;52.046;4.724;2023-04-25T12:19:42;14.40;98.40
27540;DHT22;15906;52.046;4.724;2023-04-25T12:22:23;14.30;99.60
27540;DHT22;15906;52.046;4.724;2023-04-25T12:24:49;14.00;96.70
27540;DHT22;15906;52.046;4.724;2023-04-25T12:27:16;13.60;98.40
27540;DHT22;15906;52.046;4.724;2023-04-25T12:29:54;13.40;96.40
27540;DHT22;15906;52.046;4.724;2023-04-25T12:32:21;13.30;99.80
27540;DHT22;15906;52.046;4.724;2023-04-25T12:34:46;13.30;99.60
27540;DHT22;15906;52.046;4.724;2023-04-25T12:37:12;13.20;98.80
27540;DHT22;15906;52.046;4.724;2023-04-25T12:39:38;12.80;99.90
27540;DHT22;15906;52.046;4.724;2023-04-25T12:42:03;13.00;99.90
27540;DHT22;15906;52.046;4.724;2023-04-25T12:44:29;13.40;99.90
27540;DHT22;15906;52.046;4.724;2023-04-25T12:46:55;13.70;99.30
27540;DHT22;15906;52.046;4.724;2023-04-25T12:49:20;13.70;99.90
27540;DHT22;15906;52.046;4.724;2023-04-25T12:51:46;13.60;99.10
27540;DHT22;15906;52.046;4.724;2023-04-25T12:54:16;13.30;98.70
27540;DHT22;15906;52.046;4.724;2023-04-25T12:56:42;13.10;99.90
27540;DHT22;15906;52.046;4.724;2023-04-25T12:59:08;12.80;99.90
27540;DHT22;15906;52.046;4.724;2023-04-25T13:01:34;12.80;99.90
27540;DHT22;15906;52.046;4.724;2023-04-25T13:04:00;13.20;99.90
27540;DHT22;15906;52.046;4.724;2023-04-25T13:06:25;13.50;99.90
27540;DHT22;15906;52.046;4.724;2023-04-25T13:08:51;13.70;99.60
27540;DHT22;15906;52.046;4.724;2023-04-25T13:11:17;13.80;98.90
27540;DHT22;15906;52.046;4.724;2023-04-25T13:13:44;13.90;98.10
27540;DHT22;15906;52.046;4.724;2023-04-25T13:16:10;13.70;99.40
27540;DHT22;15906;52.046;4.724;2023-04-25T13:18:37;13.20;99.90
27540;DHT22;15906;52.046;4.724;2023-04-25T13:21:02;13.00;99.90
27540;DHT22;15906;52.046;4.724;2023-04-25T13:23:28;13.00;99.30
27540;DHT22;15906;52.046;4.724;2023-04-25T13:25:55;12.80;99.10
27540;DHT22;15906;52.046;4.724;2023-04-25T13:28:23;12.70;99.90
27540;DHT22;15906;52.046;4.724;2023-04-25T13:30:49;12.50;99.90
27540;DHT22;15906;52.046;4.724;2023-04-25T13:33:15;12.20;99.90
27540;DHT22;15906;52.046;4.724;2023-04-25T13:35:41;12.00;99.90
27540;DHT22;15906;52.046;4.724;2023-04-25T13:38:07;11.60;99.90
27540;DHT22;15906;52.046;4.724;2023-04-25T13:40:33;11.40;99.90
27540;DHT22;15906;52.046;4.724;2023-04-25T13:42:59;11.10;99.90
27540;DHT22;15906;52.046;4.724;2023-04-25T13:45:24;11.10;99.90
27540;DHT22;15906;52.046;4.724;2023-04-25T13:47:50;11.20;99.90
27540;DHT22;15906;52.046;4.724;2023-04-25T13:50:16;11.50;99.90
27540;DHT22;15906;52.046;4.724;2023-04-25T13:52:42;11.60;99.90
27540;DHT22;15906;52.046;4.724;2023-04-25T13:55:08;11.90;99.90
27540;DHT22;15906;52.046;4.724;2023-04-25T13:57:34;12.00;99.90
27540;DHT22;15906;52.046;4.724;2023-04-25T14:00:00;12.20;99.90
27540;DHT22;15906;52.046;4.724;2023-04-25T14:02:30;12.30;99.90
27540;DHT22;15906;52.046;4.724;2023-04-25T14:04:55;12.30;99.90
27540;DHT22;15906;52.046;4.724;2023-04-25T14:07:21;12.40;99.90
27540;DHT22;15906;52.046;4.724;2023-04-25T14:09:47;12.40;99.90
27540;DHT22;15906;52.046;4.724;2023-04-25T14:12:12;12.10;98.20
27540;DHT22;15906;52.046;4.724;2023-04-25T14:14:38;12.20;99.90
27540;DHT22;15906;52.046;4.724;2023-04-25T14:17:03;12.10;98.10
27540;DHT22;15906;52.046;4.724;2023-04-25T14:19:29;12.10;99.20
27540;DHT22;15906;52.046;4.724;2023-04-25T14:21:55;12.00;99.90
27540;DHT22;15906;52.046;4.724;2023-04-25T14:24:21;11.90;99.30
27540;DHT22;15906;52.046;4.724;2023-04-25T14:26:46;12.00;99.40
27540;DHT22;15906;52.046;4.724;2023-04-25T14:29:12;12.10;99.90
27540;DHT22;15906;52.046;4.724;2023-04-25T14:31:39;12.10;99.60
27540;DHT22;15906;52.046;4.724;2023-04-25T14:34:05;12.20;99.90
27540;DHT22;15906;52.046;4.724;2023-04-25T14:36:31;12.10;99.00
27540;DHT22;15906;52.046;4.724;2023-04-25T14:38:57;12.10;98.90
27540;DHT22;15906;52.046;4.724;2023-04-25T14:41:24;12.00;98.10
27540;DHT22;15906;52.046;4.724;2023-04-25T14:43:50;11.90;98.90
27540;DHT22;15906;52.046;4.724;2023-04-25T14:46:16;11.80;99.30
27540;DHT22;15906;52.046;4.724;2023-04-25T14:48:42;11.80;98.70
27540;DHT22;15906;52.046;4.724;2023-04-25T14:51:08;11.70;99.10
27540;DHT22;15906;52.046;4.724;2023-04-25T14:53:33;11.70;99.90
27540;DHT22;15906;52.046;4.724;2023-04-25T14:55:59;11.80;99.90
27540;DHT22;15906;52.046;4.724;2023-04-25T14:58:24;11.80;99.90
27540;DHT22;15906;52.046;4.724;2023-04-25T15:00:50;11.90;99.90
27540;DHT22;15906;52.046;4.724;2023-04-25T15:03:16;11.70;99.90
27540;DHT22;15906;52.046;4.724;2023-04-25T15:05:42;11.60;99.90
27540;DHT22;15906;52.046;4.724;2023-04-25T15:08:08;11.50;99.80
27540;DHT22;15906;52.046;4.724;2023-04-25T15:10:34;11.50;99.50
27540;DHT22;15906;52.046;4.724;2023-04-25T15:13:00;11.60;99.90
27540;DHT22;15906;52.046;4.724;2023-04-25T15:15:26;11.60;99.90
27540;DHT22;15906;52.046;4.724;2023-04-25T15:17:52;11.60;99.90
27540;DHT22;15906;52.046;4.724;2023-04-25T15:20:19;11.40;99.10
27540;DHT22;15906;52.046;4.724;2023-04-25T15:22:44;11.30;99.30
27540;DHT22;15906;52.046;4.724;2023-04-25T15:25:11;11.10;99.90
27540;DHT22;15906;52.046;4.724;2023-04-25T15:27:38;11.10;99.90
27540;DHT22;15906;52.046;4.724;2023-04-25T15:30:07;11.00;99.90
27540;DHT22;15906;52.046;4.724;2023-04-25T15:32:33;10.90;99.90
27540;DHT22;15906;52.046;4.724;2023-04-25T15:35:03;10.80;99.90
27540;DHT22;15906;52.046;4.724;2023-04-25T15:37:29;10.60;99.90
27540;DHT22;15906;52.046;4.724;2023-04-25T15:40:07;10.60;99.90
27540;DHT22;15906;52.046;4.724;2023-04-25T15:42:38;10.60;99.90
27540;DHT22;15906;52.046;4.724;2023-04-25T15:45:06;10.70;99.90
27540;DHT22;15906;52.046;4.724;2023-04-25T15:47:33;10.80;99.90
27540;DHT22;15906;52.046;4.724;2023-04-25T15:49:59;10.90;99.90
27540;DHT22;15906;52.046;4.724;2023-04-25T15:52:25;10.90;99.90
27540;DHT22;15906;52.046;4.724;2023-04-25T15:54:52;10.90;99.90
27540;DHT22;15906;52.046;4.724;2023-04-25T15:57:17;10.90;99.90
27540;DHT22;15906;52.046;4.724;2023-04-25T15:59:43;10.70;99.90
27540;DHT22;15906;52.046;4.724;2023-04-25T16:02:09;10.60;99.90
27540;DHT22;15906;52.046;4.724;2023-04-25T16:04:34;10.60;99.70
27540;DHT22;15906;52.046;4.724;2023-04-25T16:07:01;10.50;99.70
27540;DHT22;15906;52.046;4.724;2023-04-25T16:09:28;10.40;99.90
27540;DHT22;15906;52.046;4.724;2023-04-25T16:11:53;10.30;99.90
27540;DHT22;15906;52.046;4.724;2023-04-25T16:14:19;10.20;99.90
27540;DHT22;15906;52.046;4.724;2023-04-25T16:16:45;10.00;99.90
27540;DHT22;15906;52.046;4.724;2023-04-25T16:19:10;10.00;99.90
27540;DHT22;15906;52.046;4.724;2023-04-25T16:21:36;9.90;99.90
27540;DHT22;15906;52.046;4.724;2023-04-25T16:24:02;9.80;99.90
27540;DHT22;15906;52.046;4.724;2023-04-25T16:26:28;9.80;99.90
27540;DHT22;15906;52.046;4.724;2023-04-25T16:28:53;10.00;99.90
27540;DHT22;15906;52.046;4.724;2023-04-25T16:31:19;10.00;99.90
27540;DHT22;15906;52.046;4.724;2023-04-25T16:33:45;10.10;99.90
27540;DHT22;15906;52.046;4.724;2023-04-25T16:36:10;10.10;99.90
27540;DHT22;15906;52.046;4.724;2023-04-25T16:38:37;10.00;99.90
27540;DHT22;15906;52.046;4.724;2023-04-25T16:41:04;10.00;99.90
27540;DHT22;15906;52.046;4.724;2023-04-25T16:43:30;10.10;99.90